Time;durP1;ratioP1;P1;durP2;ratioP2;P2;SDS_P1;SDS_P2;PMS_P1;PMS_P2;Temp;Humidity;BMP_temperature;BMP_pressure;BME280_temperature;BME280_humidity;BME280_pressure;Samples;Min_cycle;Max_cycle;Signal;HPM_P1;HPM_P2
2023/01/23 00:00:03;;;;;;;26.48;15.88;;;2.30;99.90;;;;;;5031207;28;20053;-79
2023/01/23 00:02:29;;;;;;;24.80;14.98;;;2.00;99.90;;;;;;5034984;28;20053;-80
2023/01/23 00:04:55;;;;;;;25.15;13.90;;;2.00;99.90;;;;;;5052277;28;20546;-80
2023/01/23 00:07:21;;;;;;;25.30;14.57;;;2.00;99.90;;;;;;5034330;28;20057;-80
2023/01/23 00:09:47;;;;;;;23.08;13.55;;;2.00;99.90;;;;;;5034146;28;20404;-80
2023/01/23 00:12:13;;;;;;;22.98;13.75;;;2.10;99.90;;;;;;5034574;28;20135;-80
2023/01/23 00:14:38;;;;;;;26.38;13.73;;;2.00;99.90;;;;;;5034307;28;20055;-80
2023/01/23 00:17:04;;;;;;;26.10;13.38;;;2.00;99.90;;;;;;5051092;28;20045;-80
2023/01/23 00:19:30;;;;;;;23.58;13.93;;;2.00;99.90;;;;;;5038185;28;20045;-81
2023/01/23 00:21:58;;;;;;;27.38;14.07;;;2.10;99.90;;;;;;5022270;28;20084;-80
2023/01/23 00:24:24;;;;;;;23.98;14.05;;;2.10;99.90;;;;;;5023256;28;20060;-80
2023/01/23 00:26:50;;;;;;;30.02;14.35;;;2.10;99.90;;;;;;5038557;28;20045;-80
2023/01/23 00:29:15;;;;;;;24.80;14.60;;;2.10;99.90;;;;;;5021195;28;20408;-80
2023/01/23 00:31:41;;;;;;;25.95;14.82;;;2.10;99.90;;;;;;5038593;28;20106;-80
2023/01/23 00:34:11;;;;;;;25.02;14.05;;;2.10;99.90;;;;;;5054379;28;20118;-80
2023/01/23 00:36:39;;;;;;;28.25;14.10;;;2.10;99.90;;;;;;5038073;28;20060;-80
2023/01/23 00:39:17;;;;;;;23.40;14.27;;;2.10;99.90;;;;;;5036997;28;20045;-79
2023/01/23 00:41:43;;;;;;;22.45;13.90;;;2.10;99.90;;;;;;5025880;28;20172;-80
2023/01/23 00:44:09;;;;;;;25.88;14.52;;;2.10;99.90;;;;;;5037462;28;20060;-80
2023/01/23 00:46:35;;;;;;;25.65;14.13;;;2.20;99.90;;;;;;5055529;28;20044;-80
2023/01/23 00:49:01;;;;;;;27.17;14.32;;;2.20;99.90;;;;;;5029808;28;20049;-80
2023/01/23 00:51:26;;;;;;;22.77;14.05;;;2.20;99.90;;;;;;5049352;28;20048;-80
2023/01/23 00:53:52;;;;;;;24.90;13.75;;;2.10;99.90;;;;;;5006212;28;20036;-80
2023/01/23 00:56:18;;;;;;;23.15;13.90;;;2.20;99.90;;;;;;5038201;28;20063;-80
2023/01/23 00:58:44;;;;;;;24.35;14.02;;;2.20;99.90;;;;;;5040307;28;20048;-80
2023/01/23 01:01:10;;;;;;;26.40;15.10;;;2.10;99.90;;;;;;5029077;28;20057;-80
2023/01/23 01:03:36;;;;;;;21.77;14.02;;;2.30;99.90;;;;;;5048872;28;20056;-80
2023/01/23 01:06:02;;;;;;;23.90;14.18;;;2.20;99.90;;;;;;5034221;28;20103;-80
2023/01/23 01:08:28;;;;;;;23.67;14.55;;;2.20;99.90;;;;;;5036214;28;20061;-80
2023/01/23 01:10:54;;;;;;;23.80;14.18;;;2.20;99.90;;;;;;5032060;28;20156;-80
2023/01/23 01:13:22;;;;;;;24.80;14.73;;;2.20;99.90;;;;;;5028800;28;20124;-80
2023/01/23 01:15:50;;;;;;;26.02;15.57;;;2.20;99.90;;;;;;5032744;28;20053;-80
2023/01/23 01:18:16;;;;;;;27.67;14.82;;;2.30;99.90;;;;;;5060717;28;20048;-80
2023/01/23 01:20:42;;;;;;;25.02;15.43;;;2.30;99.90;;;;;;5068471;28;20396;-80
2023/01/23 01:23:09;;;;;;;26.05;14.77;;;2.30;99.90;;;;;;5023209;28;20045;-80
2023/01/23 01:25:36;;;;;;;27.20;15.50;;;2.30;99.90;;;;;;5036037;28;20137;-80
2023/01/23 01:28:02;;;;;;;26.30;15.00;;;2.30;99.90;;;;;;5035016;28;20174;-80
2023/01/23 01:30:29;;;;;;;25.70;14.90;;;2.30;99.90;;;;;;5037176;28;20064;-80
2023/01/23 01:32:55;;;;;;;25.98;14.73;;;2.30;99.90;;;;;;5036740;28;20116;-80
2023/01/23 01:35:23;;;;;;;24.77;14.38;;;2.30;99.90;;;;;;5027508;28;20485;-80
2023/01/23 01:37:49;;;;;;;24.25;14.65;;;2.20;99.90;;;;;;5033623;28;20052;-80
2023/01/23 01:40:24;;;;;;;25.98;14.68;;;2.20;99.90;;;;;;5036284;28;20053;-80
2023/01/23 01:42:59;;;;;;;22.95;14.35;;;2.20;99.90;;;;;;5036643;28;20128;-79
2023/01/23 01:46:03;;;;;;;24.42;15.38;;;2.20;99.90;;;;;;5034889;28;20049;-80
2023/01/23 01:49:00;;;;;;;24.63;14.70;;;2.20;99.90;;;;;;5030666;28;20048;-80
2023/01/23 01:51:42;;;;;;;23.60;14.23;;;2.20;99.90;;;;;;5017336;28;20060;-80
2023/01/23 01:54:24;;;;;;;26.17;15.75;;;2.20;99.90;;;;;;5049322;28;20080;-80
2023/01/23 01:57:11;;;;;;;27.13;14.80;;;2.30;99.90;;;;;;5038446;28;20073;-80
2023/01/23 01:59:48;;;;;;;26.67;15.25;;;2.30;99.90;;;;;;5030546;28;20496;-80
2023/01/23 02:02:19;;;;;;;25.05;14.70;;;2.30;99.90;;;;;;5036610;28;20045;-81
2023/01/23 02:04:48;;;;;;;28.50;16.00;;;2.30;99.90;;;;;;5016123;28;20064;-80
2023/01/23 02:07:22;;;;;;;26.60;16.20;;;2.30;99.90;;;;;;5025545;28;20036;-81
2023/01/23 02:09:49;;;;;;;27.35;16.23;;;2.30;99.90;;;;;;5035361;28;20049;-81
2023/01/23 02:12:15;;;;;;;24.08;15.80;;;2.30;99.90;;;;;;5016927;28;20049;-80
2023/01/23 02:14:41;;;;;;;24.10;14.45;;;2.30;99.90;;;;;;5028399;28;20057;-80
2023/01/23 02:17:08;;;;;;;26.58;15.65;;;2.40;99.90;;;;;;5022013;28;20048;-80
2023/01/23 02:19:47;;;;;;;25.25;15.13;;;2.30;99.90;;;;;;5026206;28;20042;-80
2023/01/23 02:22:31;;;;;;;23.13;15.20;;;2.30;99.90;;;;;;5034509;28;20120;-80
2023/01/23 02:25:30;;;;;;;24.55;14.88;;;2.40;99.90;;;;;;5028144;28;20068;-80
2023/01/23 02:27:56;;;;;;;24.45;14.65;;;2.40;99.90;;;;;;5032588;28;20125;-80
2023/01/23 02:30:23;;;;;;;28.58;15.05;;;2.40;99.90;;;;;;5020590;28;20127;-80
2023/01/23 02:32:48;;;;;;;25.75;15.55;;;2.40;99.90;;;;;;5036723;28;20037;-80
2023/01/23 02:35:22;;;;;;;27.45;16.35;;;2.50;99.90;;;;;;5052261;28;20061;-80
2023/01/23 02:37:52;;;;;;;28.85;16.38;;;2.40;99.90;;;;;;5036014;28;20060;-80
2023/01/23 02:40:21;;;;;;;26.23;15.65;;;2.30;99.90;;;;;;5028013;28;20060;-80
2023/01/23 02:42:48;;;;;;;26.83;15.00;;;2.30;99.90;;;;;;5016346;28;20468;-80
2023/01/23 02:45:13;;;;;;;23.48;15.50;;;2.30;99.90;;;;;;5033743;28;20045;-80
2023/01/23 02:47:39;;;;;;;23.92;15.32;;;2.30;99.90;;;;;;5035722;28;20045;-80
2023/01/23 02:50:05;;;;;;;29.10;15.95;;;2.30;99.90;;;;;;5004933;28;20049;-80
2023/01/23 02:52:33;;;;;;;27.38;15.57;;;2.30;99.90;;;;;;5036070;28;20099;-80
2023/01/23 02:54:59;;;;;;;25.23;15.48;;;2.30;99.90;;;;;;5052218;28;20049;-80
2023/01/23 02:57:24;;;;;;;27.80;15.27;;;2.30;99.90;;;;;;5016050;28;20077;-80
2023/01/23 03:02:34;;;;;;;26.13;15.20;;;2.30;99.90;;;;;;5029692;28;20425;-80
2023/01/23 03:05:00;;;;;;;24.13;15.55;;;2.30;99.90;;;;;;5027708;28;20052;-80
2023/01/23 03:07:26;;;;;;;27.52;16.00;;;2.30;99.90;;;;;;5035092;28;20500;-80
2023/01/23 03:09:51;;;;;;;26.92;16.65;;;2.30;99.90;;;;;;5034636;28;20080;-80
2023/01/23 03:12:17;;;;;;;25.67;15.82;;;2.20;99.90;;;;;;5018266;28;20052;-80
2023/01/23 03:14:43;;;;;;;27.67;16.23;;;2.30;99.90;;;;;;5035262;28;20086;-80
2023/01/23 03:17:09;;;;;;;30.15;16.88;;;2.30;99.90;;;;;;5021476;28;20041;-79
2023/01/23 03:19:35;;;;;;;23.40;15.63;;;2.30;99.90;;;;;;5035022;28;20060;-80
2023/01/23 03:22:01;;;;;;;24.98;16.13;;;2.30;99.90;;;;;;5034892;28;20396;-80
2023/01/23 03:24:27;;;;;;;25.40;15.68;;;2.30;99.90;;;;;;5033702;28;20041;-80
2023/01/23 03:26:52;;;;;;;29.60;16.50;;;2.20;99.90;;;;;;5015632;28;20128;-80
2023/01/23 03:32:10;;;;;;;25.83;15.95;;;2.20;99.90;;;;;;5033414;28;20416;-80
2023/01/23 03:34:37;;;;;;;27.60;17.08;;;2.20;99.90;;;;;;5020693;28;20052;-80
2023/01/23 03:37:03;;;;;;;28.92;16.65;;;2.30;99.90;;;;;;5035114;28;20045;-79
2023/01/23 03:42:13;;;;;;;26.23;16.13;;;2.20;99.90;;;;;;5045478;28;20132;-80
2023/01/23 03:44:39;;;;;;;28.73;17.08;;;2.20;99.90;;;;;;5035019;28;20124;-80
2023/01/23 03:47:05;;;;;;;26.55;16.80;;;2.20;99.90;;;;;;5034738;28;20052;-80
2023/01/23 03:49:31;;;;;;;27.42;17.30;;;2.20;99.90;;;;;;5034871;28;20056;-80
2023/01/23 03:51:58;;;;;;;28.10;16.73;;;2.60;99.90;;;;;;5036833;28;20037;-80
2023/01/23 03:54:24;;;;;;;28.20;17.60;;;2.20;99.90;;;;;;5046277;28;20110;-80
2023/01/23 03:56:50;;;;;;;27.42;17.23;;;2.40;99.90;;;;;;5038722;28;20053;-80
2023/01/23 03:59:15;;;;;;;30.15;17.02;;;2.20;99.90;;;;;;5038063;28;20465;-80
2023/01/23 04:01:41;;;;;;;30.23;17.50;;;2.20;99.90;;;;;;5019365;28;20045;-80
2023/01/23 04:04:07;;;;;;;31.00;17.70;;;2.20;99.90;;;;;;5021715;28;20472;-80
2023/01/23 04:06:33;;;;;;;27.27;17.63;;;2.10;99.90;;;;;;5038858;28;20108;-80
2023/01/23 04:08:59;;;;;;;29.10;17.42;;;2.20;99.90;;;;;;5021404;28;20527;-79
2023/01/23 04:11:25;;;;;;;28.63;17.15;;;2.20;99.90;;;;;;5018977;28;20049;-80
2023/01/23 04:13:52;;;;;;;31.25;18.30;;;2.20;99.90;;;;;;5025792;28;20083;-80
2023/01/23 04:16:17;;;;;;;30.30;17.63;;;2.20;99.90;;;;;;5025115;28;20049;-80
2023/01/23 04:18:43;;;;;;;29.02;18.20;;;2.10;99.90;;;;;;5021603;28;20037;-80
2023/01/23 04:21:09;;;;;;;33.33;18.17;;;2.20;99.90;;;;;;5038713;28;20056;-80
2023/01/23 04:23:35;;;;;;;30.95;17.77;;;2.10;99.90;;;;;;5037289;28;20053;-80
2023/01/23 04:26:01;;;;;;;32.35;17.70;;;2.10;99.90;;;;;;5038361;28;20061;-80
2023/01/23 04:28:27;;;;;;;26.98;17.17;;;2.10;99.90;;;;;;5057868;28;20042;-80
2023/01/23 04:30:52;;;;;;;27.92;17.77;;;2.10;99.90;;;;;;5050610;28;20045;-80
2023/01/23 04:33:19;;;;;;;32.35;18.30;;;2.10;99.90;;;;;;5031242;28;20046;-80
2023/01/23 04:35:56;;;;;;;28.30;18.80;;;2.10;99.90;;;;;;5030655;28;20052;-80
2023/01/23 04:38:23;;;;;;;26.13;17.60;;;2.10;99.90;;;;;;5037138;28;20488;-78
2023/01/23 04:40:49;;;;;;;28.27;17.55;;;2.10;99.90;;;;;;5034748;28;20053;-80
2023/01/23 04:43:15;;;;;;;32.47;17.77;;;2.10;99.90;;;;;;5036022;28;20118;-80
2023/01/23 04:45:42;;;;;;;28.27;17.85;;;2.10;99.90;;;;;;5038161;28;20481;-80
2023/01/23 04:48:09;;;;;;;28.23;17.60;;;2.20;99.90;;;;;;5037554;28;20049;-80
2023/01/23 04:50:35;;;;;;;29.58;18.60;;;2.10;99.90;;;;;;5037555;28;20060;-80
2023/01/23 04:53:01;;;;;;;27.48;18.10;;;2.10;99.90;;;;;;5037800;28;20053;-79
2023/01/23 04:55:27;;;;;;;32.42;18.17;;;2.10;99.90;;;;;;5005690;28;20134;-80
2023/01/23 04:57:53;;;;;;;34.78;18.50;;;2.10;99.90;;;;;;5023758;28;20092;-80
2023/01/23 05:00:20;;;;;;;28.48;17.92;;;2.20;99.90;;;;;;5004720;28;20049;-80
2023/01/23 05:02:47;;;;;;;28.60;17.58;;;2.10;99.90;;;;;;5022524;28;20114;-80
2023/01/23 05:05:13;;;;;;;24.95;17.23;;;2.40;99.90;;;;;;5021028;28;20056;-80
2023/01/23 05:07:39;;;;;;;30.48;17.73;;;2.10;99.90;;;;;;5037354;28;20045;-80
2023/01/23 05:10:05;;;;;;;28.55;18.15;;;2.10;99.90;;;;;;5033294;28;20037;-80
2023/01/23 05:12:31;;;;;;;31.90;18.80;;;2.10;99.90;;;;;;5012088;28;20061;-81
2023/01/23 05:14:57;;;;;;;28.85;17.95;;;2.10;99.90;;;;;;5034653;28;20059;-80
2023/01/23 05:17:22;;;;;;;28.77;17.85;;;2.10;99.90;;;;;;5017882;28;20432;-80
2023/01/23 05:19:48;;;;;;;27.45;17.40;;;2.10;99.90;;;;;;5034575;28;20076;-80
2023/01/23 05:22:14;;;;;;;28.98;17.75;;;2.10;99.90;;;;;;5043771;28;20043;-81
2023/01/23 05:24:40;;;;;;;30.42;18.23;;;2.10;99.90;;;;;;5014979;28;20120;-80
2023/01/23 05:27:05;;;;;;;29.52;19.00;;;2.10;99.90;;;;;;5018769;28;20057;-80
2023/01/23 05:29:31;;;;;;;31.02;19.05;;;2.10;99.90;;;;;;5027904;28;20512;-81
2023/01/23 05:31:57;;;;;;;30.10;18.88;;;2.10;99.90;;;;;;5018697;28;20055;-80
2023/01/23 05:34:22;;;;;;;30.30;18.83;;;2.10;99.90;;;;;;5004786;28;20107;-81
2023/01/23 05:36:48;;;;;;;31.85;18.92;;;2.10;99.90;;;;;;5036500;28;20131;-81
2023/01/23 05:39:14;;;;;;;32.17;19.92;;;2.10;99.90;;;;;;5024674;28;20049;-80
2023/01/23 05:41:39;;;;;;;44.85;28.00;;;2.10;99.90;;;;;;5036138;28;20048;-80
2023/01/23 05:44:05;;;;;;;89.28;51.05;;;2.10;99.90;;;;;;5036629;28;20049;-80
2023/01/23 05:46:31;;;;;;;84.15;54.70;;;2.10;99.90;;;;;;5033285;28;20123;-80
2023/01/23 05:48:57;;;;;;;87.55;56.22;;;2.10;99.90;;;;;;5012143;28;20046;-80
2023/01/23 05:51:30;;;;;;;96.20;57.78;;;2.10;99.90;;;;;;5035004;28;20049;-80
2023/01/23 05:53:56;;;;;;;236.60;142.10;;;2.10;99.90;;;;;;5032133;28;20056;-80
2023/01/23 05:56:21;;;;;;;102.75;64.97;;;2.10;99.90;;;;;;5004591;28;20049;-80
2023/01/23 05:58:47;;;;;;;87.30;56.63;;;2.10;99.90;;;;;;5018291;28;20052;-80
2023/01/23 06:01:13;;;;;;;168.05;116.20;;;2.10;99.90;;;;;;5016431;28;20500;-79
2023/01/23 06:03:38;;;;;;;49.90;31.50;;;2.10;99.90;;;;;;5017573;28;20128;-80
2023/01/23 06:06:04;;;;;;;104.20;64.07;;;2.10;99.90;;;;;;5015463;28;20041;-80
2023/01/23 06:08:30;;;;;;;85.22;54.35;;;2.10;99.90;;;;;;5031914;28;20136;-80
2023/01/23 06:10:57;;;;;;;58.85;37.95;;;2.10;99.90;;;;;;5014836;28;20049;-80
2023/01/23 06:13:24;;;;;;;56.08;38.70;;;3.20;99.90;;;;;;5018975;28;20050;-80
2023/01/23 06:15:50;;;;;;;37.40;24.65;;;2.20;99.90;;;;;;5050247;28;20460;-79
2023/01/23 06:18:16;;;;;;;56.80;36.08;;;2.10;99.90;;;;;;5020446;28;20516;-79
2023/01/23 06:20:41;;;;;;;49.75;33.55;;;2.20;99.90;;;;;;5020375;28;20053;-80
2023/01/23 06:23:07;;;;;;;38.45;24.70;;;2.10;99.90;;;;;;5011636;28;20049;-80
2023/01/23 06:25:33;;;;;;;32.88;20.73;;;2.20;99.90;;;;;;5022190;28;20045;-80
2023/01/23 06:27:58;;;;;;;30.13;19.50;;;2.20;99.90;;;;;;5034637;28;20444;-80
2023/01/23 06:30:24;;;;;;;31.13;19.77;;;2.10;99.90;;;;;;5026031;28;20124;-80
2023/01/23 06:32:50;;;;;;;29.90;20.88;;;2.30;99.90;;;;;;5035537;28;20041;-80
2023/01/23 06:35:16;;;;;;;31.60;20.23;;;2.40;99.90;;;;;;5017610;28;20057;-80
2023/01/23 06:37:41;;;;;;;27.92;19.00;;;2.20;99.90;;;;;;5009560;28;20069;-80
2023/01/23 06:40:11;;;;;;;29.83;18.50;;;2.20;99.90;;;;;;5011604;28;20061;-80
2023/01/23 06:42:38;;;;;;;27.13;18.75;;;2.10;99.90;;;;;;5031553;28;20065;-81
2023/01/23 06:45:05;;;;;;;31.02;20.08;;;2.20;99.90;;;;;;5017896;28;20055;-80
2023/01/23 06:47:31;;;;;;;27.65;17.70;;;2.20;99.90;;;;;;5035477;28;20116;-81
2023/01/23 06:49:57;;;;;;;29.25;18.70;;;2.20;99.90;;;;;;5034876;28;20187;-80
2023/01/23 06:52:23;;;;;;;28.25;19.27;;;2.20;99.90;;;;;;5037480;28;20060;-80
2023/01/23 06:54:49;;;;;;;31.35;19.23;;;2.10;99.90;;;;;;5020540;28;20085;-80
2023/01/23 06:57:15;;;;;;;32.05;19.73;;;2.10;99.90;;;;;;5031893;28;20092;-80
2023/01/23 06:59:41;;;;;;;28.17;18.52;;;2.10;99.90;;;;;;5017134;28;20094;-80
2023/01/23 07:02:09;;;;;;;34.08;25.02;;;2.20;99.90;;;;;;5035316;28;20040;-80
2023/01/23 07:04:34;;;;;;;45.08;35.00;;;2.10;99.90;;;;;;5034683;28;20080;-80
2023/01/23 07:07:00;;;;;;;49.58;34.60;;;2.10;99.90;;;;;;5015277;28;20100;-79
2023/01/23 07:09:26;;;;;;;32.60;22.15;;;2.20;99.90;;;;;;5027940;28;20055;-80
2023/01/23 07:11:52;;;;;;;29.60;20.77;;;2.10;99.90;;;;;;5030281;28;20041;-80
2023/01/23 07:14:17;;;;;;;27.48;19.25;;;2.10;99.90;;;;;;5012147;28;20045;-80
2023/01/23 07:16:43;;;;;;;30.67;20.23;;;2.20;99.90;;;;;;5024257;28;20089;-81
2023/01/23 07:19:09;;;;;;;27.35;18.55;;;2.10;99.90;;;;;;5026199;28;20469;-80
2023/01/23 07:21:35;;;;;;;31.10;18.80;;;2.10;99.90;;;;;;5026614;28;20085;-80
2023/01/23 07:24:00;;;;;;;29.77;19.23;;;2.10;99.90;;;;;;5012968;28;20047;-80
2023/01/23 07:26:26;;;;;;;28.20;18.75;;;2.10;99.90;;;;;;5017280;28;20526;-80
2023/01/23 07:28:52;;;;;;;31.50;19.92;;;2.20;99.90;;;;;;5033737;28;20041;-80
2023/01/23 07:31:18;;;;;;;32.28;22.38;;;2.10;99.90;;;;;;5023653;28;20103;-80
2023/01/23 07:33:44;;;;;;;46.55;31.45;;;2.10;99.90;;;;;;5015392;28;20045;-80
2023/01/23 07:36:12;;;;;;;36.75;24.02;;;2.10;99.90;;;;;;5033982;28;20060;-80
2023/01/23 07:38:38;;;;;;;43.53;27.63;;;2.20;99.90;;;;;;5033828;28;20408;-80
2023/01/23 07:41:04;;;;;;;29.65;18.63;;;2.20;99.90;;;;;;5023748;28;20056;-79
2023/01/23 07:43:30;;;;;;;27.08;17.10;;;2.10;99.90;;;;;;5001990;28;20045;-80
2023/01/23 07:45:59;;;;;;;27.17;17.42;;;2.20;99.90;;;;;;5034758;28;20076;-80
2023/01/23 07:48:25;;;;;;;27.85;18.08;;;2.30;99.90;;;;;;5020104;28;20041;-80
2023/01/23 07:50:51;;;;;;;27.02;18.25;;;2.20;99.90;;;;;;5026070;28;20079;-80
2023/01/23 07:53:16;;;;;;;27.23;17.77;;;2.30;99.90;;;;;;5049975;28;20059;-79
2023/01/23 07:55:43;;;;;;;24.98;16.67;;;2.20;99.90;;;;;;5025938;28;20049;-79
2023/01/23 07:58:08;;;;;;;23.77;15.88;;;2.30;99.90;;;;;;5030472;28;20473;-80
2023/01/23 08:00:37;;;;;;;32.25;19.25;;;2.30;99.90;;;;;;5029229;28;20092;-80
2023/01/23 08:03:03;;;;;;;33.88;21.55;;;2.30;99.90;;;;;;5045535;28;20056;-80
2023/01/23 08:05:29;;;;;;;31.35;18.20;;;2.30;99.90;;;;;;5023359;28;20041;-79
2023/01/23 08:07:54;;;;;;;25.92;16.27;;;2.20;99.90;;;;;;5018779;28;20045;-80
2023/01/23 08:10:20;;;;;;;27.80;16.65;;;2.30;99.90;;;;;;5025013;28;20053;-80
2023/01/23 08:12:46;;;;;;;27.27;17.08;;;2.30;99.90;;;;;;5022020;28;20045;-80
2023/01/23 08:15:12;;;;;;;25.58;16.52;;;2.30;99.90;;;;;;5025674;28;20041;-80
2023/01/23 08:17:37;;;;;;;26.63;17.45;;;2.30;99.90;;;;;;5024751;28;20091;-80
2023/01/23 08:20:03;;;;;;;23.67;15.20;;;2.20;99.90;;;;;;5025173;28;20056;-80
2023/01/23 08:22:29;;;;;;;27.98;16.10;;;2.30;99.90;;;;;;5021921;28;20152;-80
2023/01/23 08:24:55;;;;;;;22.70;16.17;;;2.30;99.90;;;;;;5023591;28;20214;-80
2023/01/23 08:27:21;;;;;;;27.60;16.30;;;2.30;99.90;;;;;;5023630;28;20052;-80
2023/01/23 08:29:46;;;;;;;24.85;16.02;;;2.30;99.90;;;;;;5029438;28;20069;-80
2023/01/23 08:32:12;;;;;;;23.23;15.45;;;2.30;99.90;;;;;;5048614;28;20037;-80
2023/01/23 08:34:38;;;;;;;26.02;16.70;;;2.30;99.90;;;;;;5029531;28;20469;-80
2023/01/23 08:37:04;;;;;;;28.67;20.27;;;2.30;99.90;;;;;;5049568;28;20370;-80
2023/01/23 08:39:30;;;;;;;27.35;18.80;;;2.30;99.90;;;;;;5025193;28;20045;-80
2023/01/23 08:41:55;;;;;;;27.52;21.73;;;2.40;99.90;;;;;;5024156;28;20041;-80
2023/01/23 08:44:22;;;;;;;25.05;16.80;;;2.40;99.90;;;;;;5010492;28;20053;-80
2023/01/23 08:46:48;;;;;;;25.38;15.25;;;2.40;99.90;;;;;;5034000;28;20049;-80
2023/01/23 08:49:13;;;;;;;22.63;15.60;;;2.40;99.90;;;;;;5033832;28;20102;-80
2023/01/23 08:51:39;;;;;;;25.30;15.15;;;2.40;99.90;;;;;;4995894;28;20044;-80
2023/01/23 08:54:05;;;;;;;23.77;15.45;;;2.50;99.90;;;;;;5051721;28;20436;-80
2023/01/23 08:56:31;;;;;;;23.58;15.88;;;2.50;99.90;;;;;;5027652;28;20048;-80
2023/01/23 08:58:56;;;;;;;21.70;14.85;;;3.00;99.90;;;;;;5045329;28;20053;-80
2023/01/23 09:01:24;;;;;;;21.70;14.63;;;2.60;99.90;;;;;;5043688;28;20504;-80
2023/01/23 09:03:50;;;;;;;21.20;13.55;;;2.60;99.90;;;;;;5053033;28;20374;-81
2023/01/23 09:06:19;;;;;;;21.48;12.55;;;2.60;99.90;;;;;;5045521;28;20040;-80
2023/01/23 09:08:44;;;;;;;17.85;13.35;;;2.60;99.90;;;;;;5048142;28;20052;-80
2023/01/23 09:11:12;;;;;;;20.63;13.65;;;2.60;99.90;;;;;;5012403;28;20041;-80
2023/01/23 09:13:38;;;;;;;20.55;12.13;;;2.60;99.90;;;;;;5023155;28;20049;-80
2023/01/23 09:16:07;;;;;;;16.35;11.65;;;2.70;99.90;;;;;;5047123;28;20071;-80
2023/01/23 09:18:33;;;;;;;15.90;11.65;;;2.70;99.90;;;;;;5024604;28;20127;-80
2023/01/23 09:20:59;;;;;;;19.00;12.02;;;2.60;99.90;;;;;;5034498;28;20395;-80
2023/01/23 09:23:25;;;;;;;18.52;11.50;;;2.70;99.90;;;;;;5047870;28;20045;-80
2023/01/23 09:25:50;;;;;;;17.98;12.07;;;2.70;99.90;;;;;;5046126;28;20045;-80
2023/01/23 09:28:16;;;;;;;17.65;11.13;;;2.80;99.90;;;;;;5048983;28;20128;-79
2023/01/23 09:30:42;;;;;;;16.17;11.48;;;2.80;99.90;;;;;;5049626;28;20056;-80
2023/01/23 09:33:08;;;;;;;16.23;11.27;;;2.80;99.90;;;;;;5032505;28;20568;-80
2023/01/23 09:35:34;;;;;;;17.15;11.60;;;2.80;99.90;;;;;;5021260;28;20136;-80
2023/01/23 09:38:03;;;;;;;16.40;10.80;;;2.80;99.90;;;;;;5051193;28;20064;-81
2023/01/23 09:41:12;;;;;;;16.20;11.55;;;2.90;99.90;;;;;;5050607;28;20056;-80
2023/01/23 09:43:56;;;;;;;15.10;10.70;;;2.80;99.90;;;;;;5027798;28;20056;-80
2023/01/23 09:46:27;;;;;;;16.10;11.10;;;2.80;99.90;;;;;;5054328;28;20130;-78
2023/01/23 09:49:02;;;;;;;19.23;11.73;;;2.80;99.90;;;;;;5050871;28;20052;-79
2023/01/23 09:51:36;;;;;;;16.75;11.98;;;2.90;99.90;;;;;;5051112;28;20055;-80
2023/01/23 09:54:15;;;;;;;18.10;11.93;;;2.90;99.90;;;;;;5045869;28;20145;-80
2023/01/23 09:56:46;;;;;;;19.60;11.88;;;2.90;99.90;;;;;;5045787;28;20477;-80
2023/01/23 09:59:52;;;;;;;16.15;11.45;;;2.90;99.90;;;;;;5048791;28;20051;-80
2023/01/23 10:02:20;;;;;;;16.10;10.93;;;3.00;99.90;;;;;;5034572;28;20067;-80
2023/01/23 10:04:48;;;;;;;17.98;12.05;;;3.00;99.90;;;;;;5051342;28;20210;-80
2023/01/23 10:07:32;;;;;;;18.63;11.13;;;3.00;99.90;;;;;;5050823;28;20052;-80
2023/01/23 10:10:04;;;;;;;18.52;12.13;;;3.00;99.90;;;;;;5049594;28;20124;-80
2023/01/23 10:12:49;;;;;;;17.13;11.52;;;3.00;99.90;;;;;;5033179;28;20084;-80
2023/01/23 10:15:19;;;;;;;18.50;11.85;;;3.00;99.90;;;;;;5036769;28;20061;-80
2023/01/23 10:18:11;;;;;;;15.65;11.32;;;3.10;99.90;;;;;;5037863;28;20068;-80
2023/01/23 10:20:55;;;;;;;16.70;11.13;;;3.10;99.90;;;;;;5022154;28;20050;-80
2023/01/23 10:23:29;;;;;;;18.65;10.93;;;3.10;99.90;;;;;;5077230;28;20067;-80
2023/01/23 10:25:55;;;;;;;19.38;11.32;;;3.10;99.90;;;;;;5047533;28;20084;-80
2023/01/23 10:28:41;;;;;;;47.72;26.02;;;3.10;99.90;;;;;;5049689;28;20520;-80
2023/01/23 10:31:25;;;;;;;20.63;14.77;;;3.10;99.90;;;;;;5050651;28;20048;-80
2023/01/23 10:34:06;;;;;;;107.03;62.65;;;3.10;99.90;;;;;;5053154;28;20052;-79
2023/01/23 10:36:47;;;;;;;20.15;13.57;;;3.20;99.90;;;;;;4981960;28;20068;-80
2023/01/23 10:39:17;;;;;;;26.05;15.77;;;3.10;99.90;;;;;;5049804;28;20044;-80
2023/01/23 10:41:45;;;;;;;70.97;43.95;;;3.10;99.90;;;;;;5030993;28;20048;-79
2023/01/23 10:44:16;;;;;;;23.83;13.20;;;3.10;99.90;;;;;;5045571;28;20067;-80
2023/01/23 10:46:48;;;;;;;19.90;13.05;;;3.10;99.90;;;;;;5048388;28;20048;-78
2023/01/23 10:49:36;;;;;;;18.55;13.90;;;3.10;99.90;;;;;;5011493;28;20092;-80
2023/01/23 10:52:03;;;;;;;18.70;13.23;;;3.10;99.90;;;;;;5052491;28;20079;-80
2023/01/23 10:54:29;;;;;;;18.45;13.35;;;3.10;99.90;;;;;;5034817;28;20080;-80
2023/01/23 10:57:19;;;;;;;18.02;12.25;;;3.10;99.90;;;;;;5047677;28;20131;-82
2023/01/23 11:00:14;;;;;;;18.65;12.63;;;3.20;99.90;;;;;;5046210;28;20099;-81
2023/01/23 11:02:40;;;;;;;18.60;12.50;;;3.20;99.90;;;;;;5047084;28;20043;-80
2023/01/23 11:05:34;;;;;;;16.65;11.82;;;3.10;99.90;;;;;;5025692;28;20040;-81
2023/01/23 11:07:59;;;;;;;18.38;12.02;;;3.20;99.90;;;;;;5048926;28;20090;-80
2023/01/23 11:10:25;;;;;;;18.17;12.55;;;3.20;99.90;;;;;;5047087;28;20044;-80
2023/01/23 11:12:54;;;;;;;16.73;12.43;;;3.20;99.90;;;;;;5032395;28;20053;-81
2023/01/23 11:15:22;;;;;;;19.63;13.63;;;3.20;99.90;;;;;;5045463;28;20402;-79
2023/01/23 11:17:53;;;;;;;19.95;14.02;;;3.20;99.90;;;;;;5044014;28;20048;-80
2023/01/23 11:20:41;;;;;;;21.42;14.50;;;3.20;99.90;;;;;;5041040;28;20049;-80
2023/01/23 11:23:07;;;;;;;17.15;12.93;;;3.30;99.90;;;;;;5040743;28;20048;-80
2023/01/23 11:25:36;;;;;;;17.95;13.98;;;3.30;99.90;;;;;;5033720;28;20066;-79
2023/01/23 11:28:25;;;;;;;17.40;13.70;;;3.30;99.90;;;;;;5048505;28;20048;-79
2023/01/23 11:31:05;;;;;;;18.67;13.50;;;3.30;99.90;;;;;;5029706;28;20136;-80
2023/01/23 11:33:53;;;;;;;19.77;13.57;;;3.30;99.90;;;;;;5050331;28;20403;-80
2023/01/23 11:36:22;;;;;;;18.40;13.63;;;3.30;99.90;;;;;;5047941;28;20056;-79
2023/01/23 11:38:59;;;;;;;18.13;12.77;;;3.40;99.90;;;;;;5048648;28;20074;-79
2023/01/23 11:41:34;;;;;;;16.95;12.88;;;3.40;99.90;;;;;;5052047;28;20503;-80
2023/01/23 11:44:12;;;;;;;17.65;13.07;;;3.50;99.90;;;;;;5048978;28;20480;-80
2023/01/23 11:47:15;;;;;;;18.75;12.88;;;3.40;99.90;;;;;;5050786;28;20495;-80
2023/01/23 11:49:56;;;;;;;19.25;13.07;;;3.50;99.90;;;;;;5050046;28;20049;-79
2023/01/23 11:52:42;;;;;;;21.02;14.05;;;3.50;99.90;;;;;;5050920;28;20043;-79
2023/01/23 11:55:30;;;;;;;17.27;13.32;;;3.50;99.90;;;;;;5048696;28;20119;-80
2023/01/23 11:58:13;;;;;;;17.95;12.68;;;3.60;99.90;;;;;;5047766;28;20047;-80
2023/01/23 12:00:54;;;;;;;18.98;13.15;;;3.60;99.90;;;;;;5050056;28;20048;-80
2023/01/23 12:03:35;;;;;;;18.00;12.52;;;3.60;99.90;;;;;;5061452;28;20060;-82
2023/01/23 12:06:35;;;;;;;17.35;12.73;;;3.60;99.90;;;;;;5035829;28;20048;-80
2023/01/23 12:09:09;;;;;;;19.95;13.32;;;3.60;99.90;;;;;;5033928;28;20454;-80
2023/01/23 12:11:43;;;;;;;19.70;14.23;;;3.60;99.90;;;;;;5050637;28;20405;-80
2023/01/23 12:14:21;;;;;;;18.05;13.25;;;3.60;99.90;;;;;;5051954;28;20046;-80
2023/01/23 12:16:49;;;;;;;18.58;13.02;;;3.60;99.90;;;;;;5034599;28;20049;-80
2023/01/23 12:19:43;;;;;;;19.00;13.32;;;3.60;99.90;;;;;;5052129;28;20056;-80
2023/01/23 12:22:41;;;;;;;17.20;12.93;;;3.60;99.90;;;;;;5048556;28;20049;-79
2023/01/23 12:25:15;;;;;;;17.55;12.40;;;3.60;99.90;;;;;;5046862;28;20116;-80
2023/01/23 12:27:47;;;;;;;19.67;13.80;;;3.60;99.90;;;;;;5053483;28;20048;-80
2023/01/23 12:30:38;;;;;;;20.58;13.10;;;3.60;99.90;;;;;;5051761;28;20049;-80
2023/01/23 12:33:25;;;;;;;18.30;13.45;;;3.60;99.90;;;;;;5054359;28;20057;-79
2023/01/23 12:36:27;;;;;;;19.98;13.63;;;3.60;99.90;;;;;;5051668;28;20111;-79
2023/01/23 12:38:58;;;;;;;19.70;13.18;;;3.70;99.90;;;;;;5051237;28;20446;-79
2023/01/23 12:41:39;;;;;;;17.67;12.77;;;3.70;99.90;;;;;;5050609;28;20057;-80
2023/01/23 12:44:15;;;;;;;20.42;13.52;;;3.70;99.90;;;;;;5027175;28;20045;-80
2023/01/23 12:46:50;;;;;;;18.35;13.82;;;3.70;99.90;;;;;;5054481;28;20424;-80
2023/01/23 12:49:37;;;;;;;22.00;14.95;;;3.70;99.90;;;;;;5050615;28;20443;-80
2023/01/23 12:52:22;;;;;;;112.25;59.92;;;3.80;99.90;;;;;;5046941;28;20040;-80
2023/01/23 12:55:14;;;;;;;65.20;41.20;;;3.80;99.90;;;;;;5049560;28;20063;-80
2023/01/23 12:57:50;;;;;;;28.50;21.77;;;3.70;99.90;;;;;;5019079;28;20496;-80